Current | Forecast
Updated: 6:30 AM CET on February 24, 2018
Observed at Sabadell, Spain
Temperature 0°C
Humidity 87%
Dew Point -2°C
Wind North at 0 km/h
Pressure 1007 hPa (Steady)
Conditions Clear
Visibility 8.0 kilometers
UV N/A
Clouds
Yesterday's Maximum 11°C
Yesterday's Minimum 1°C approx.
Yesterday's Heating Degree Days 22 approx.
Sunrise7:33 AM CET
Sunset6:35 PM CET
Moon Rise12:46 PM CET
Moon Set2:38 AM CET
Moon PhaseMoon Phase
First Quarter
Raw METARMETAR LELL 240530Z AUTO 00000KT 8000 NCD M00/M02 Q1007


Monday
. High: 86° F.
Tuesday
. High: 80° F.
Wednesday
. High: 82° F.
Thursday
. High: 77° F.
Friday
. High: 77° F.
Saturday
. High: 82° F.
Sunday
. High: 86° F.
Monday
. High: 80° F.

Click here for Marine Information
Scientific forecaster discussion (NWS)

Units: English | Metric

Find the Weather for any City, State or Zipcode, or Country:

U.S. State List | Severe Weather | Tropical Storms | Ski Conditions
United States | Canada | Central America | South America | Asia | Europe | Australia | Africa | Islands

Weather Underground

© Copyright 2018
The Weather Company, LLC